sensor_id;sensor_type;location;lat;lon;timestamp;P1;durP1;ratioP1;P2;durP2;ratioP2
35366;SDS011;21465;52.278;20.962;2023-05-07T00:01:59;2.35;;;2.22;;
35366;SDS011;21465;52.278;20.962;2023-05-07T00:04:25;2.70;;;2.25;;
35366;SDS011;21465;52.278;20.962;2023-05-07T00:06:51;2.55;;;2.35;;
35366;SDS011;21465;52.278;20.962;2023-05-07T00:09:16;2.83;;;2.63;;
35366;SDS011;21465;52.278;20.962;2023-05-07T00:11:42;2.78;;;2.30;;
35366;SDS011;21465;52.278;20.962;2023-05-07T00:14:08;3.05;;;2.50;;
35366;SDS011;21465;52.278;20.962;2023-05-07T00:16:34;2.42;;;2.22;;
35366;SDS011;21465;52.278;20.962;2023-05-07T00:18:59;2.30;;;2.10;;
35366;SDS011;21465;52.278;20.962;2023-05-07T00:21:25;2.22;;;2.08;;
35366;SDS011;21465;52.278;20.962;2023-05-07T00:23:52;2.38;;;2.28;;
35366;SDS011;21465;52.278;20.962;2023-05-07T00:26:18;2.00;;;1.90;;
35366;SDS011;21465;52.278;20.962;2023-05-07T00:28:44;2.42;;;2.22;;
35366;SDS011;21465;52.278;20.962;2023-05-07T00:31:10;2.03;;;1.88;;
35366;SDS011;21465;52.278;20.962;2023-05-07T00:33:35;2.28;;;2.08;;
35366;SDS011;21465;52.278;20.962;2023-05-07T00:36:01;1.90;;;1.80;;
35366;SDS011;21465;52.278;20.962;2023-05-07T00:38:28;2.90;;;1.88;;
35366;SDS011;21465;52.278;20.962;2023-05-07T00:40:56;2.10;;;2.00;;
35366;SDS011;21465;52.278;20.962;2023-05-07T00:43:23;2.00;;;1.80;;
35366;SDS011;21465;52.278;20.962;2023-05-07T00:45:49;2.25;;;2.15;;
35366;SDS011;21465;52.278;20.962;2023-05-07T00:48:15;2.10;;;1.90;;
35366;SDS011;21465;52.278;20.962;2023-05-07T00:50:41;2.08;;;1.85;;
35366;SDS011;21465;52.278;20.962;2023-05-07T00:53:07;2.40;;;2.03;;
35366;SDS011;21465;52.278;20.962;2023-05-07T00:55:33;2.70;;;2.08;;
35366;SDS011;21465;52.278;20.962;2023-05-07T00:57:59;2.65;;;2.45;;
35366;SDS011;21465;52.278;20.962;2023-05-07T01:00:25;3.45;;;2.40;;
35366;SDS011;21465;52.278;20.962;2023-05-07T01:02:50;2.30;;;2.20;;
35366;SDS011;21465;52.278;20.962;2023-05-07T01:05:17;2.45;;;2.20;;
35366;SDS011;21465;52.278;20.962;2023-05-07T01:07:43;2.30;;;2.10;;
35366;SDS011;21465;52.278;20.962;2023-05-07T01:10:09;2.10;;;1.92;;
35366;SDS011;21465;52.278;20.962;2023-05-07T01:12:36;1.90;;;1.80;;
35366;SDS011;21465;52.278;20.962;2023-05-07T01:15:03;2.17;;;2.00;;
35366;SDS011;21465;52.278;20.962;2023-05-07T01:17:37;1.80;;;1.70;;
35366;SDS011;21465;52.278;20.962;2023-05-07T01:20:06;1.73;;;1.63;;
35366;SDS011;21465;52.278;20.962;2023-05-07T01:22:36;2.70;;;1.85;;
35366;SDS011;21465;52.278;20.962;2023-05-07T01:25:03;2.10;;;2.00;;
35366;SDS011;21465;52.278;20.962;2023-05-07T01:27:30;2.00;;;1.80;;
35366;SDS011;21465;52.278;20.962;2023-05-07T01:29:56;1.80;;;1.70;;
35366;SDS011;21465;52.278;20.962;2023-05-07T01:32:44;2.70;;;2.25;;
35366;SDS011;21465;52.278;20.962;2023-05-07T01:35:18;1.85;;;1.75;;
35366;SDS011;21465;52.278;20.962;2023-05-07T01:37:46;2.38;;;2.17;;
35366;SDS011;21465;52.278;20.962;2023-05-07T01:40:12;1.90;;;1.80;;
35366;SDS011;21465;52.278;20.962;2023-05-07T01:42:38;2.08;;;1.92;;
35366;SDS011;21465;52.278;20.962;2023-05-07T01:45:04;2.90;;;2.13;;
35366;SDS011;21465;52.278;20.962;2023-05-07T01:47:30;2.45;;;2.25;;
35366;SDS011;21465;52.278;20.962;2023-05-07T01:49:57;2.28;;;2.08;;
35366;SDS011;21465;52.278;20.962;2023-05-07T01:52:22;3.50;;;2.25;;
35366;SDS011;21465;52.278;20.962;2023-05-07T01:54:48;1.80;;;1.70;;
35366;SDS011;21465;52.278;20.962;2023-05-07T01:57:15;2.25;;;2.15;;
35366;SDS011;21465;52.278;20.962;2023-05-07T01:59:40;2.10;;;1.90;;
35366;SDS011;21465;52.278;20.962;2023-05-07T02:02:09;2.00;;;1.90;;
35366;SDS011;21465;52.278;20.962;2023-05-07T02:04:35;2.20;;;1.95;;
35366;SDS011;21465;52.278;20.962;2023-05-07T02:07:01;2.15;;;2.05;;
35366;SDS011;21465;52.278;20.962;2023-05-07T02:09:27;1.90;;;1.80;;
35366;SDS011;21465;52.278;20.962;2023-05-07T02:11:53;1.80;;;1.70;;
35366;SDS011;21465;52.278;20.962;2023-05-07T02:14:19;2.00;;;1.90;;
35366;SDS011;21465;52.278;20.962;2023-05-07T02:16:45;1.42;;;1.33;;
35366;SDS011;21465;52.278;20.962;2023-05-07T02:19:11;2.03;;;1.92;;
35366;SDS011;21465;52.278;20.962;2023-05-07T02:21:37;1.65;;;1.55;;
35366;SDS011;21465;52.278;20.962;2023-05-07T02:24:03;2.30;;;2.08;;
35366;SDS011;21465;52.278;20.962;2023-05-07T02:26:28;1.83;;;1.73;;
35366;SDS011;21465;52.278;20.962;2023-05-07T02:28:54;2.22;;;2.00;;
35366;SDS011;21465;52.278;20.962;2023-05-07T02:31:20;1.90;;;1.80;;
35366;SDS011;21465;52.278;20.962;2023-05-07T02:33:46;1.77;;;1.67;;
35366;SDS011;21465;52.278;20.962;2023-05-07T02:36:12;2.08;;;1.98;;
35366;SDS011;21465;52.278;20.962;2023-05-07T02:38:38;1.73;;;1.63;;
35366;SDS011;21465;52.278;20.962;2023-05-07T02:41:04;2.47;;;1.70;;
35366;SDS011;21465;52.278;20.962;2023-05-07T02:43:30;1.90;;;1.65;;
35366;SDS011;21465;52.278;20.962;2023-05-07T02:46:05;1.77;;;1.67;;
35366;SDS011;21465;52.278;20.962;2023-05-07T02:48:32;1.63;;;1.52;;
35366;SDS011;21465;52.278;20.962;2023-05-07T02:50:58;1.65;;;1.55;;
35366;SDS011;21465;52.278;20.962;2023-05-07T02:53:25;1.80;;;1.70;;
35366;SDS011;21465;52.278;20.962;2023-05-07T02:55:58;1.73;;;1.42;;
35366;SDS011;21465;52.278;20.962;2023-05-07T02:58:25;11.73;;;1.90;;
35366;SDS011;21465;52.278;20.962;2023-05-07T03:00:51;1.63;;;1.52;;
35366;SDS011;21465;52.278;20.962;2023-05-07T03:03:17;1.92;;;1.83;;
35366;SDS011;21465;52.278;20.962;2023-05-07T03:05:43;1.90;;;1.80;;
35366;SDS011;21465;52.278;20.962;2023-05-07T03:08:09;1.80;;;1.70;;
35366;SDS011;21465;52.278;20.962;2023-05-07T03:10:35;1.50;;;1.40;;
35366;SDS011;21465;52.278;20.962;2023-05-07T03:13:01;1.70;;;1.60;;
35366;SDS011;21465;52.278;20.962;2023-05-07T03:15:27;1.55;;;1.45;;
35366;SDS011;21465;52.278;20.962;2023-05-07T03:17:53;2.15;;;1.95;;
35366;SDS011;21465;52.278;20.962;2023-05-07T03:20:18;1.88;;;1.77;;
35366;SDS011;21465;52.278;20.962;2023-05-07T03:22:44;1.92;;;1.83;;
35366;SDS011;21465;52.278;20.962;2023-05-07T03:25:10;2.08;;;1.88;;
35366;SDS011;21465;52.278;20.962;2023-05-07T03:27:36;2.38;;;1.70;;
35366;SDS011;21465;52.278;20.962;2023-05-07T03:30:02;1.75;;;1.63;;
35366;SDS011;21465;52.278;20.962;2023-05-07T03:32:28;1.48;;;1.38;;
35366;SDS011;21465;52.278;20.962;2023-05-07T03:34:53;2.28;;;1.98;;
35366;SDS011;21465;52.278;20.962;2023-05-07T03:37:19;1.70;;;1.60;;
35366;SDS011;21465;52.278;20.962;2023-05-07T03:39:45;1.90;;;1.80;;
35366;SDS011;21465;52.278;20.962;2023-05-07T03:42:11;2.30;;;1.73;;
35366;SDS011;21465;52.278;20.962;2023-05-07T03:44:36;2.05;;;1.88;;
35366;SDS011;21465;52.278;20.962;2023-05-07T03:47:02;2.20;;;1.83;;
35366;SDS011;21465;52.278;20.962;2023-05-07T03:49:28;1.63;;;1.40;;
35366;SDS011;21465;52.278;20.962;2023-05-07T03:51:54;1.50;;;1.40;;
35366;SDS011;21465;52.278;20.962;2023-05-07T03:54:19;1.42;;;1.17;;
35366;SDS011;21465;52.278;20.962;2023-05-07T03:56:45;1.58;;;1.48;;
35366;SDS011;21465;52.278;20.962;2023-05-07T03:59:11;1.65;;;1.55;;
35366;SDS011;21465;52.278;20.962;2023-05-07T04:01:39;1.25;;;1.15;;
35366;SDS011;21465;52.278;20.962;2023-05-07T04:04:04;1.15;;;1.15;;
35366;SDS011;21465;52.278;20.962;2023-05-07T04:06:30;1.63;;;1.52;;
35366;SDS011;21465;52.278;20.962;2023-05-07T04:08:56;1.75;;;1.60;;
35366;SDS011;21465;52.278;20.962;2023-05-07T04:11:22;1.65;;;1.33;;
35366;SDS011;21465;52.278;20.962;2023-05-07T04:13:47;1.73;;;1.50;;
35366;SDS011;21465;52.278;20.962;2023-05-07T04:16:13;1.95;;;1.77;;
35366;SDS011;21465;52.278;20.962;2023-05-07T04:18:39;1.80;;;1.70;;
35366;SDS011;21465;52.278;20.962;2023-05-07T04:21:05;1.60;;;1.45;;
35366;SDS011;21465;52.278;20.962;2023-05-07T04:23:30;1.48;;;1.30;;
35366;SDS011;21465;52.278;20.962;2023-05-07T04:25:56;1.40;;;1.30;;
35366;SDS011;21465;52.278;20.962;2023-05-07T04:28:22;1.63;;;1.52;;
35366;SDS011;21465;52.278;20.962;2023-05-07T04:30:49;1.45;;;1.27;;
35366;SDS011;21465;52.278;20.962;2023-05-07T04:33:14;1.92;;;1.40;;
35366;SDS011;21465;52.278;20.962;2023-05-07T04:35:43;1.70;;;1.60;;
35366;SDS011;21465;52.278;20.962;2023-05-07T04:38:09;1.65;;;1.50;;
35366;SDS011;21465;52.278;20.962;2023-05-07T04:40:35;1.55;;;1.45;;
35366;SDS011;21465;52.278;20.962;2023-05-07T04:43:01;1.70;;;1.40;;
35366;SDS011;21465;52.278;20.962;2023-05-07T04:45:27;1.42;;;1.33;;
35366;SDS011;21465;52.278;20.962;2023-05-07T04:47:52;1.00;;;1.00;;
35366;SDS011;21465;52.278;20.962;2023-05-07T04:50:18;1.10;;;1.00;;
35366;SDS011;21465;52.278;20.962;2023-05-07T04:52:45;1.30;;;1.20;;
35366;SDS011;21465;52.278;20.962;2023-05-07T04:55:10;1.50;;;1.40;;
35366;SDS011;21465;52.278;20.962;2023-05-07T04:57:36;1.20;;;1.10;;
35366;SDS011;21465;52.278;20.962;2023-05-07T05:00:04;1.15;;;1.15;;
35366;SDS011;21465;52.278;20.962;2023-05-07T05:02:30;1.40;;;1.30;;
35366;SDS011;21465;52.278;20.962;2023-05-07T05:04:56;1.20;;;1.10;;
35366;SDS011;21465;52.278;20.962;2023-05-07T05:07:21;1.38;;;1.27;;
35366;SDS011;21465;52.278;20.962;2023-05-07T05:09:47;1.30;;;1.20;;
35366;SDS011;21465;52.278;20.962;2023-05-07T05:12:13;1.20;;;1.20;;
35366;SDS011;21465;52.278;20.962;2023-05-07T05:14:39;1.20;;;1.10;;
35366;SDS011;21465;52.278;20.962;2023-05-07T05:17:04;1.42;;;1.00;;
35366;SDS011;21465;52.278;20.962;2023-05-07T05:19:30;1.35;;;1.23;;
35366;SDS011;21465;52.278;20.962;2023-05-07T05:21:55;1.13;;;1.13;;
35366;SDS011;21465;52.278;20.962;2023-05-07T05:24:21;1.25;;;1.10;;
35366;SDS011;21465;52.278;20.962;2023-05-07T05:26:47;0.90;;;0.90;;
35366;SDS011;21465;52.278;20.962;2023-05-07T05:29:13;1.25;;;1.08;;
35366;SDS011;21465;52.278;20.962;2023-05-07T05:31:38;1.45;;;1.35;;
35366;SDS011;21465;52.278;20.962;2023-05-07T05:34:04;1.70;;;1.30;;
35366;SDS011;21465;52.278;20.962;2023-05-07T05:36:30;1.20;;;1.10;;
35366;SDS011;21465;52.278;20.962;2023-05-07T05:38:58;1.50;;;1.00;;
35366;SDS011;21465;52.278;20.962;2023-05-07T05:41:23;1.42;;;1.33;;
35366;SDS011;21465;52.278;20.962;2023-05-07T05:43:50;1.25;;;1.15;;
35366;SDS011;21465;52.278;20.962;2023-05-07T05:46:18;2.03;;;1.15;;
35366;SDS011;21465;52.278;20.962;2023-05-07T05:48:45;1.67;;;1.05;;
35366;SDS011;21465;52.278;20.962;2023-05-07T05:51:11;1.30;;;1.20;;
35366;SDS011;21465;52.278;20.962;2023-05-07T05:53:37;1.38;;;1.02;;
35366;SDS011;21465;52.278;20.962;2023-05-07T05:56:02;1.17;;;1.10;;
35366;SDS011;21465;52.278;20.962;2023-05-07T05:58:28;0.85;;;0.85;;
35366;SDS011;21465;52.278;20.962;2023-05-07T06:00:54;1.63;;;1.35;;
35366;SDS011;21465;52.278;20.962;2023-05-07T06:03:20;0.90;;;0.85;;
35366;SDS011;21465;52.278;20.962;2023-05-07T06:05:45;1.35;;;1.10;;
35366;SDS011;21465;52.278;20.962;2023-05-07T06:08:11;0.77;;;0.77;;
35366;SDS011;21465;52.278;20.962;2023-05-07T06:10:37;1.02;;;1.00;;
35366;SDS011;21465;52.278;20.962;2023-05-07T06:13:06;2.72;;;1.30;;
35366;SDS011;21465;52.278;20.962;2023-05-07T06:15:31;2.33;;;1.25;;
35366;SDS011;21465;52.278;20.962;2023-05-07T06:17:57;1.38;;;1.05;;
35366;SDS011;21465;52.278;20.962;2023-05-07T06:20:23;1.05;;;1.02;;
35366;SDS011;21465;52.278;20.962;2023-05-07T06:22:49;1.05;;;0.90;;
35366;SDS011;21465;52.278;20.962;2023-05-07T06:25:14;0.85;;;0.85;;
35366;SDS011;21465;52.278;20.962;2023-05-07T06:27:40;0.82;;;0.82;;
35366;SDS011;21465;52.278;20.962;2023-05-07T06:30:06;1.00;;;0.90;;
35366;SDS011;21465;52.278;20.962;2023-05-07T06:32:32;0.90;;;0.90;;
35366;SDS011;21465;52.278;20.962;2023-05-07T06:34:59;1.08;;;1.00;;
35366;SDS011;21465;52.278;20.962;2023-05-07T06:37:25;0.70;;;0.70;;
35366;SDS011;21465;52.278;20.962;2023-05-07T06:39:50;1.40;;;1.30;;
35366;SDS011;21465;52.278;20.962;2023-05-07T06:42:16;0.85;;;0.85;;
35366;SDS011;21465;52.278;20.962;2023-05-07T06:44:42;1.17;;;1.08;;
35366;SDS011;21465;52.278;20.962;2023-05-07T06:47:08;1.20;;;1.10;;
35366;SDS011;21465;52.278;20.962;2023-05-07T06:49:42;0.80;;;0.80;;
35366;SDS011;21465;52.278;20.962;2023-05-07T06:52:08;2.60;;;1.17;;
35366;SDS011;21465;52.278;20.962;2023-05-07T06:54:33;1.08;;;0.98;;
35366;SDS011;21465;52.278;20.962;2023-05-07T06:56:59;1.25;;;1.15;;
35366;SDS011;21465;52.278;20.962;2023-05-07T06:59:25;1.10;;;1.00;;
35366;SDS011;21465;52.278;20.962;2023-05-07T07:01:51;1.00;;;0.80;;
35366;SDS011;21465;52.278;20.962;2023-05-07T07:04:17;0.90;;;0.80;;
35366;SDS011;21465;52.278;20.962;2023-05-07T07:06:43;0.75;;;0.75;;
35366;SDS011;21465;52.278;20.962;2023-05-07T07:09:09;1.00;;;0.90;;
35366;SDS011;21465;52.278;20.962;2023-05-07T07:11:34;1.23;;;1.13;;
35366;SDS011;21465;52.278;20.962;2023-05-07T07:14:00;1.25;;;1.15;;
35366;SDS011;21465;52.278;20.962;2023-05-07T07:16:33;1.10;;;1.00;;
35366;SDS011;21465;52.278;20.962;2023-05-07T07:19:01;0.75;;;0.75;;
35366;SDS011;21465;52.278;20.962;2023-05-07T07:21:27;0.93;;;0.93;;
35366;SDS011;21465;52.278;20.962;2023-05-07T07:23:53;0.80;;;0.80;;
35366;SDS011;21465;52.278;20.962;2023-05-07T07:26:19;1.48;;;1.38;;
35366;SDS011;21465;52.278;20.962;2023-05-07T07:28:47;0.80;;;0.80;;
35366;SDS011;21465;52.278;20.962;2023-05-07T07:31:14;0.90;;;0.90;;
35366;SDS011;21465;52.278;20.962;2023-05-07T07:33:40;0.80;;;0.80;;
35366;SDS011;21465;52.278;20.962;2023-05-07T07:36:06;0.90;;;0.90;;
35366;SDS011;21465;52.278;20.962;2023-05-07T07:38:32;0.98;;;0.98;;
35366;SDS011;21465;52.278;20.962;2023-05-07T07:40:58;1.02;;;1.02;;
35366;SDS011;21465;52.278;20.962;2023-05-07T07:43:25;0.88;;;0.88;;
35366;SDS011;21465;52.278;20.962;2023-05-07T07:45:51;1.13;;;1.02;;
35366;SDS011;21465;52.278;20.962;2023-05-07T07:48:16;2.50;;;1.02;;
35366;SDS011;21465;52.278;20.962;2023-05-07T07:50:42;0.95;;;0.95;;
35366;SDS011;21465;52.278;20.962;2023-05-07T07:53:08;2.05;;;1.10;;
35366;SDS011;21465;52.278;20.962;2023-05-07T07:55:37;1.00;;;0.80;;
35366;SDS011;21465;52.278;20.962;2023-05-07T08:00:30;1.30;;;0.88;;
35366;SDS011;21465;52.278;20.962;2023-05-07T08:02:55;1.92;;;1.00;;
35366;SDS011;21465;52.278;20.962;2023-05-07T08:05:22;0.70;;;0.70;;
35366;SDS011;21465;52.278;20.962;2023-05-07T08:07:48;1.10;;;1.00;;
35366;SDS011;21465;52.278;20.962;2023-05-07T08:12:47;1.33;;;0.73;;
35366;SDS011;21465;52.278;20.962;2023-05-07T08:15:14;1.55;;;1.33;;
35366;SDS011;21465;52.278;20.962;2023-05-07T08:17:40;0.88;;;0.80;;
35366;SDS011;21465;52.278;20.962;2023-05-07T08:20:09;0.57;;;0.57;;
35366;SDS011;21465;52.278;20.962;2023-05-07T08:22:35;1.58;;;0.88;;
35366;SDS011;21465;52.278;20.962;2023-05-07T08:25:01;0.80;;;0.80;;
35366;SDS011;21465;52.278;20.962;2023-05-07T08:27:30;1.05;;;0.85;;
35366;SDS011;21465;52.278;20.962;2023-05-07T08:29:58;0.85;;;0.85;;
35366;SDS011;21465;52.278;20.962;2023-05-07T08:32:24;0.88;;;0.77;;
35366;SDS011;21465;52.278;20.962;2023-05-07T08:34:50;0.80;;;0.80;;
35366;SDS011;21465;52.278;20.962;2023-05-07T08:37:16;0.65;;;0.65;;
35366;SDS011;21465;52.278;20.962;2023-05-07T08:39:42;1.77;;;1.02;;
35366;SDS011;21465;52.278;20.962;2023-05-07T08:42:08;0.70;;;0.70;;
35366;SDS011;21465;52.278;20.962;2023-05-07T08:44:35;0.80;;;0.80;;
35366;SDS011;21465;52.278;20.962;2023-05-07T08:47:01;0.68;;;0.68;;
35366;SDS011;21465;52.278;20.962;2023-05-07T08:49:28;1.10;;;0.82;;
35366;SDS011;21465;52.278;20.962;2023-05-07T08:51:57;0.80;;;0.70;;
35366;SDS011;21465;52.278;20.962;2023-05-07T08:54:23;1.15;;;0.90;;
35366;SDS011;21465;52.278;20.962;2023-05-07T08:56:49;0.80;;;0.70;;
35366;SDS011;21465;52.278;20.962;2023-05-07T08:59:15;1.42;;;1.08;;
35366;SDS011;21465;52.278;20.962;2023-05-07T09:01:41;0.63;;;0.63;;
35366;SDS011;21465;52.278;20.962;2023-05-07T09:04:07;0.95;;;0.68;;
35366;SDS011;21465;52.278;20.962;2023-05-07T09:06:33;0.95;;;0.65;;
35366;SDS011;21465;52.278;20.962;2023-05-07T09:08:59;1.05;;;0.70;;
35366;SDS011;21465;52.278;20.962;2023-05-07T09:11:27;0.95;;;0.70;;
35366;SDS011;21465;52.278;20.962;2023-05-07T09:13:54;1.02;;;0.75;;
35366;SDS011;21465;52.278;20.962;2023-05-07T09:16:21;0.95;;;0.90;;
35366;SDS011;21465;52.278;20.962;2023-05-07T09:18:48;1.85;;;0.80;;
35366;SDS011;21465;52.278;20.962;2023-05-07T09:21:19;1.15;;;0.60;;
35366;SDS011;21465;52.278;20.962;2023-05-07T09:23:49;0.60;;;0.60;;
35366;SDS011;21465;52.278;20.962;2023-05-07T09:26:16;0.80;;;0.80;;
35366;SDS011;21465;52.278;20.962;2023-05-07T09:28:42;1.67;;;0.70;;
35366;SDS011;21465;52.278;20.962;2023-05-07T09:31:08;0.70;;;0.63;;
35366;SDS011;21465;52.278;20.962;2023-05-07T09:33:35;0.77;;;0.77;;
35366;SDS011;21465;52.278;20.962;2023-05-07T09:36:07;1.00;;;0.60;;
35366;SDS011;21465;52.278;20.962;2023-05-07T09:38:34;1.10;;;0.80;;
35366;SDS011;21465;52.278;20.962;2023-05-07T09:41:01;0.68;;;0.60;;
35366;SDS011;21465;52.278;20.962;2023-05-07T09:43:38;0.70;;;0.70;;
35366;SDS011;21465;52.278;20.962;2023-05-07T09:46:14;0.70;;;0.70;;
35366;SDS011;21465;52.278;20.962;2023-05-07T09:48:42;0.80;;;0.80;;
35366;SDS011;21465;52.278;20.962;2023-05-07T09:51:18;1.65;;;0.85;;
35366;SDS011;21465;52.278;20.962;2023-05-07T09:53:48;1.57;;;0.70;;
35366;SDS011;21465;52.278;20.962;2023-05-07T09:56:14;0.75;;;0.68;;
35366;SDS011;21465;52.278;20.962;2023-05-07T09:58:41;1.10;;;0.60;;
35366;SDS011;21465;52.278;20.962;2023-05-07T10:01:08;0.50;;;0.50;;
35366;SDS011;21465;52.278;20.962;2023-05-07T10:03:36;0.80;;;0.80;;
35366;SDS011;21465;52.278;20.962;2023-05-07T10:06:03;2.50;;;0.60;;
35366;SDS011;21465;52.278;20.962;2023-05-07T10:08:29;2.75;;;0.80;;
35366;SDS011;21465;52.278;20.962;2023-05-07T10:10:57;0.60;;;0.60;;
35366;SDS011;21465;52.278;20.962;2023-05-07T10:13:22;0.57;;;0.50;;
35366;SDS011;21465;52.278;20.962;2023-05-07T10:15:51;0.55;;;0.50;;
35366;SDS011;21465;52.278;20.962;2023-05-07T10:18:18;0.73;;;0.60;;
35366;SDS011;21465;52.278;20.962;2023-05-07T10:20:48;1.42;;;0.80;;
35366;SDS011;21465;52.278;20.962;2023-05-07T10:23:19;0.55;;;0.55;;
35366;SDS011;21465;52.278;20.962;2023-05-07T10:25:49;0.63;;;0.50;;
35366;SDS011;21465;52.278;20.962;2023-05-07T10:28:15;0.45;;;0.45;;
35366;SDS011;21465;52.278;20.962;2023-05-07T10:33:36;0.57;;;0.52;;
35366;SDS011;21465;52.278;20.962;2023-05-07T10:36:03;1.23;;;0.50;;
35366;SDS011;21465;52.278;20.962;2023-05-07T10:38:30;1.98;;;0.90;;
35366;SDS011;21465;52.278;20.962;2023-05-07T10:40:56;1.90;;;0.95;;
35366;SDS011;21465;52.278;20.962;2023-05-07T10:43:22;0.85;;;0.80;;
35366;SDS011;21465;52.278;20.962;2023-05-07T10:51:36;0.80;;;0.73;;
35366;SDS011;21465;52.278;20.962;2023-05-07T10:56:42;0.85;;;0.75;;
35366;SDS011;21465;52.278;20.962;2023-05-07T10:59:29;1.00;;;0.60;;
35366;SDS011;21465;52.278;20.962;2023-05-07T11:01:58;0.98;;;0.70;;
35366;SDS011;21465;52.278;20.962;2023-05-07T11:04:25;0.50;;;0.50;;
35366;SDS011;21465;52.278;20.962;2023-05-07T11:07:24;0.63;;;0.50;;
35366;SDS011;21465;52.278;20.962;2023-05-07T11:12:17;0.60;;;0.50;;
35366;SDS011;21465;52.278;20.962;2023-05-07T11:15:10;0.90;;;0.82;;
35366;SDS011;21465;52.278;20.962;2023-05-07T11:17:53;1.05;;;0.90;;
35366;SDS011;21465;52.278;20.962;2023-05-07T11:20:20;0.82;;;0.60;;
35366;SDS011;21465;52.278;20.962;2023-05-07T11:22:50;0.75;;;0.73;;
35366;SDS011;21465;52.278;20.962;2023-05-07T11:25:21;0.60;;;0.60;;
35366;SDS011;21465;52.278;20.962;2023-05-07T11:27:53;0.60;;;0.57;;
35366;SDS011;21465;52.278;20.962;2023-05-07T11:30:39;0.52;;;0.43;;
35366;SDS011;21465;52.278;20.962;2023-05-07T11:33:19;0.57;;;0.57;;
35366;SDS011;21465;52.278;20.962;2023-05-07T11:38:30;0.70;;;0.43;;
35366;SDS011;21465;52.278;20.962;2023-05-07T11:41:11;0.70;;;0.70;;
35366;SDS011;21465;52.278;20.962;2023-05-07T11:43:55;1.20;;;0.60;;
35366;SDS011;21465;52.278;20.962;2023-05-07T11:46:27;0.50;;;0.50;;
35366;SDS011;21465;52.278;20.962;2023-05-07T11:49:08;0.70;;;0.55;;
35366;SDS011;21465;52.278;20.962;2023-05-07T11:51:37;0.73;;;0.65;;
35366;SDS011;21465;52.278;20.962;2023-05-07T11:54:04;0.82;;;0.60;;
35366;SDS011;21465;52.278;20.962;2023-05-07T11:59:23;0.75;;;0.60;;
35366;SDS011;21465;52.278;20.962;2023-05-07T12:02:04;1.35;;;0.52;;
35366;SDS011;21465;52.278;20.962;2023-05-07T12:17:08;0.70;;;0.70;;
35366;SDS011;21465;52.278;20.962;2023-05-07T12:19:51;0.50;;;0.45;;
35366;SDS011;21465;52.278;20.962;2023-05-07T12:22:36;0.70;;;0.50;;
35366;SDS011;21465;52.278;20.962;2023-05-07T12:25:08;0.55;;;0.55;;
35366;SDS011;21465;52.278;20.962;2023-05-07T12:27:36;0.85;;;0.85;;
35366;SDS011;21465;52.278;20.962;2023-05-07T12:32:30;0.50;;;0.50;;
35366;SDS011;21465;52.278;20.962;2023-05-07T12:35:16;3.50;;;0.90;;
35366;SDS011;21465;52.278;20.962;2023-05-07T12:38:00;0.63;;;0.50;;
35366;SDS011;21465;52.278;20.962;2023-05-07T12:41:19;0.45;;;0.45;;
35366;SDS011;21465;52.278;20.962;2023-05-07T12:44:39;1.42;;;0.65;;
35366;SDS011;21465;52.278;20.962;2023-05-07T12:47:20;0.45;;;0.45;;
35366;SDS011;21465;52.278;20.962;2023-05-07T12:50:24;0.82;;;0.55;;
35366;SDS011;21465;52.278;20.962;2023-05-07T12:52:50;0.63;;;0.38;;
35366;SDS011;21465;52.278;20.962;2023-05-07T12:55:17;0.80;;;0.60;;
35366;SDS011;21465;52.278;20.962;2023-05-07T13:01:06;0.40;;;0.40;;
35366;SDS011;21465;52.278;20.962;2023-05-07T13:03:35;0.73;;;0.67;;
35366;SDS011;21465;52.278;20.962;2023-05-07T13:06:05;2.50;;;0.75;;
35366;SDS011;21465;52.278;20.962;2023-05-07T13:08:32;1.65;;;0.60;;
35366;SDS011;21465;52.278;20.962;2023-05-07T13:11:00;0.40;;;0.40;;
35366;SDS011;21465;52.278;20.962;2023-05-07T13:13:36;0.50;;;0.50;;
35366;SDS011;21465;52.278;20.962;2023-05-07T13:16:05;0.43;;;0.43;;
35366;SDS011;21465;52.278;20.962;2023-05-07T13:18:31;0.47;;;0.35;;
35366;SDS011;21465;52.278;20.962;2023-05-07T13:20:58;0.77;;;0.47;;
35366;SDS011;21465;52.278;20.962;2023-05-07T13:23:27;0.75;;;0.45;;
35366;SDS011;21465;52.278;20.962;2023-05-07T13:25:57;0.63;;;0.63;;
35366;SDS011;21465;52.278;20.962;2023-05-07T13:28:23;0.70;;;0.63;;
35366;SDS011;21465;52.278;20.962;2023-05-07T13:30:55;1.05;;;0.60;;
35366;SDS011;21465;52.278;20.962;2023-05-07T13:33:20;0.55;;;0.55;;
35366;SDS011;21465;52.278;20.962;2023-05-07T13:35:46;0.55;;;0.52;;
35366;SDS011;21465;52.278;20.962;2023-05-07T13:38:12;1.10;;;0.60;;
35366;SDS011;21465;52.278;20.962;2023-05-07T13:40:44;1.48;;;0.80;;
35366;SDS011;21465;52.278;20.962;2023-05-07T13:43:09;0.90;;;0.40;;
35366;SDS011;21465;52.278;20.962;2023-05-07T13:45:36;0.60;;;0.60;;
35366;SDS011;21465;52.278;20.962;2023-05-07T13:48:01;1.15;;;0.65;;
35366;SDS011;21465;52.278;20.962;2023-05-07T13:50:27;0.93;;;0.65;;
35366;SDS011;21465;52.278;20.962;2023-05-07T13:52:55;1.42;;;0.50;;
35366;SDS011;21465;52.278;20.962;2023-05-07T13:55:21;0.32;;;0.32;;
35366;SDS011;21465;52.278;20.962;2023-05-07T13:58:00;1.30;;;0.40;;
35366;SDS011;21465;52.278;20.962;2023-05-07T14:00:27;0.40;;;0.40;;
35366;SDS011;21465;52.278;20.962;2023-05-07T14:02:53;0.57;;;0.50;;
35366;SDS011;21465;52.278;20.962;2023-05-07T14:05:20;1.20;;;0.50;;
35366;SDS011;21465;52.278;20.962;2023-05-07T14:07:46;0.80;;;0.60;;
35366;SDS011;21465;52.278;20.962;2023-05-07T14:10:13;1.42;;;0.50;;
35366;SDS011;21465;52.278;20.962;2023-05-07T14:12:38;0.55;;;0.50;;
35366;SDS011;21465;52.278;20.962;2023-05-07T14:15:04;0.40;;;0.40;;
35366;SDS011;21465;52.278;20.962;2023-05-07T14:17:30;0.77;;;0.57;;
35366;SDS011;21465;52.278;20.962;2023-05-07T14:19:57;0.60;;;0.40;;
35366;SDS011;21465;52.278;20.962;2023-05-07T14:22:22;0.63;;;0.50;;
35366;SDS011;21465;52.278;20.962;2023-05-07T14:24:49;0.75;;;0.60;;
35366;SDS011;21465;52.278;20.962;2023-05-07T14:27:15;0.65;;;0.50;;
35366;SDS011;21465;52.278;20.962;2023-05-07T14:29:41;0.70;;;0.50;;
35366;SDS011;21465;52.278;20.962;2023-05-07T14:32:07;0.77;;;0.60;;
35366;SDS011;21465;52.278;20.962;2023-05-07T14:34:33;2.17;;;0.70;;
35366;SDS011;21465;52.278;20.962;2023-05-07T14:37:05;0.63;;;0.63;;
35366;SDS011;21465;52.278;20.962;2023-05-07T14:39:33;0.60;;;0.60;;
35366;SDS011;21465;52.278;20.962;2023-05-07T14:41:58;1.15;;;0.88;;
35366;SDS011;21465;52.278;20.962;2023-05-07T14:44:25;0.80;;;0.60;;
35366;SDS011;21465;52.278;20.962;2023-05-07T14:46:51;1.77;;;0.63;;
35366;SDS011;21465;52.278;20.962;2023-05-07T14:49:20;0.73;;;0.63;;
35366;SDS011;21465;52.278;20.962;2023-05-07T14:51:45;0.60;;;0.57;;
35366;SDS011;21465;52.278;20.962;2023-05-07T14:54:12;0.60;;;0.47;;
35366;SDS011;21465;52.278;20.962;2023-05-07T14:56:40;0.55;;;0.50;;
35366;SDS011;21465;52.278;20.962;2023-05-07T14:59:07;1.33;;;0.70;;
35366;SDS011;21465;52.278;20.962;2023-05-07T15:01:36;0.50;;;0.50;;
35366;SDS011;21465;52.278;20.962;2023-05-07T15:06:30;0.77;;;0.70;;
35366;SDS011;21465;52.278;20.962;2023-05-07T15:08:59;0.82;;;0.65;;
35366;SDS011;21465;52.278;20.962;2023-05-07T15:11:25;0.60;;;0.60;;
35366;SDS011;21465;52.278;20.962;2023-05-07T15:13:51;0.50;;;0.47;;
35366;SDS011;21465;52.278;20.962;2023-05-07T15:16:17;0.50;;;0.50;;
35366;SDS011;21465;52.278;20.962;2023-05-07T15:18:43;0.90;;;0.63;;
35366;SDS011;21465;52.278;20.962;2023-05-07T15:21:09;0.52;;;0.52;;
35366;SDS011;21465;52.278;20.962;2023-05-07T15:23:35;0.93;;;0.73;;